createdAt,value
2023-02-23T00:00:31.000Z,81.43
2023-02-23T00:01:30.000Z,81.03
2023-02-23T00:02:30.000Z,81.06
2023-02-23T00:03:30.000Z,80.96
2023-02-23T00:04:31.000Z,81.09
2023-02-23T00:05:36.000Z,81.36
2023-02-23T00:06:32.000Z,81.67
2023-02-23T00:07:30.000Z,82.18
2023-02-23T00:08:35.000Z,81.32
2023-02-23T00:09:33.000Z,81.88
2023-02-23T00:10:30.000Z,82.95
2023-02-23T00:11:32.000Z,82.93
2023-02-23T00:12:30.000Z,82.50
2023-02-23T00:13:34.000Z,82.86
2023-02-23T00:14:30.000Z,82.87
2023-02-23T00:15:30.000Z,82.88
2023-02-23T00:16:30.000Z,82.89
2023-02-23T00:17:32.000Z,82.19
2023-02-23T00:18:46.000Z,82.50
2023-02-23T00:19:31.000Z,82.47
2023-02-23T00:20:30.000Z,82.72
2023-02-23T00:21:33.000Z,82.60
2023-02-23T00:22:30.000Z,83.29
2023-02-23T00:23:30.000Z,82.95
2023-02-23T00:24:30.000Z,82.62
2023-02-23T00:25:30.000Z,82.53
2023-02-23T00:26:35.000Z,82.79
2023-02-23T00:27:30.000Z,82.69
2023-02-23T00:28:30.000Z,82.78
2023-02-23T00:29:36.000Z,82.77
2023-02-23T00:30:30.000Z,83.26
2023-02-23T00:31:30.000Z,83.25
2023-02-23T00:32:30.000Z,83.29
2023-02-23T00:33:30.000Z,83.12
2023-02-23T00:34:30.000Z,83.35
2023-02-23T00:35:32.000Z,83.09
2023-02-23T00:36:32.000Z,83.04
2023-02-23T00:37:30.000Z,83.36
2023-02-23T00:38:35.000Z,83.11
2023-02-23T00:39:30.000Z,83.04
2023-02-23T00:40:30.000Z,83.31
2023-02-23T00:41:30.000Z,82.76
2023-02-23T00:42:30.000Z,83.09
2023-02-23T00:43:36.000Z,83.23
2023-02-23T00:44:32.000Z,83.67
2023-02-23T00:45:30.000Z,83.69
2023-02-23T00:46:30.000Z,83.56
2023-02-23T00:47:30.000Z,83.20
2023-02-23T00:48:31.000Z,83.03
2023-02-23T00:49:30.000Z,83.41
2023-02-23T00:50:31.000Z,83.77
2023-02-23T00:51:30.000Z,83.61
2023-02-23T00:52:30.000Z,83.89
2023-02-23T00:53:30.000Z,83.49
2023-02-23T00:54:30.000Z,83.37
2023-02-23T00:55:30.000Z,82.91
2023-02-23T00:56:30.000Z,83.13
2023-02-23T00:57:30.000Z,84.72
2023-02-23T00:58:30.000Z,84.20
2023-02-23T00:59:30.000Z,83.86
2023-02-23T01:00:30.000Z,83.92
2023-02-23T01:01:30.000Z,83.81
2023-02-23T01:02:30.000Z,83.83
2023-02-23T01:03:30.000Z,84.15
2023-02-23T01:04:30.000Z,83.72
2023-02-23T01:05:33.000Z,83.79
2023-02-23T01:06:30.000Z,83.63
2023-02-23T01:07:30.000Z,84.26
2023-02-23T01:08:32.000Z,83.77
2023-02-23T01:09:31.000Z,83.51
2023-02-23T01:10:30.000Z,83.68
2023-02-23T01:11:30.000Z,83.68
2023-02-23T01:12:30.000Z,83.28
2023-02-23T01:13:30.000Z,83.26
2023-02-23T01:14:30.000Z,83.11
2023-02-23T01:15:30.000Z,83.20
2023-02-23T01:16:32.000Z,83.03
2023-02-23T01:17:30.000Z,83.18
2023-02-23T01:18:31.000Z,83.54
2023-02-23T01:19:32.000Z,83.69
2023-02-23T01:20:32.000Z,83.52
2023-02-23T01:21:36.000Z,83.52
2023-02-23T01:22:30.000Z,84.01
2023-02-23T01:23:30.000Z,84.92
2023-02-23T01:24:30.000Z,85.61
2023-02-23T01:25:31.000Z,84.78
2023-02-23T01:26:35.000Z,84.72
2023-02-23T01:27:30.000Z,84.77
2023-02-23T01:28:30.000Z,84.51
2023-02-23T01:29:30.000Z,84.61
2023-02-23T01:30:30.000Z,85.45
2023-02-23T01:31:30.000Z,84.33
2023-02-23T01:32:30.000Z,84.55
2023-02-23T01:33:30.000Z,84.51
2023-02-23T01:34:30.000Z,84.58
2023-02-23T01:35:30.000Z,84.91
2023-02-23T01:36:35.000Z,84.54
2023-02-23T01:37:34.000Z,84.29
2023-02-23T01:38:29.000Z,85.07
2023-02-23T01:39:30.000Z,84.69
2023-02-23T01:40:30.000Z,85.65
2023-02-23T01:41:34.000Z,85.15
2023-02-23T01:42:34.000Z,85.02
2023-02-23T01:43:30.000Z,84.47
2023-02-23T01:45:00.000Z,84.21
2023-02-23T01:45:32.000Z,84.93
2023-02-23T01:46:32.000Z,85.17
2023-02-23T01:47:30.000Z,85.46
2023-02-23T01:48:37.000Z,85.02
2023-02-23T01:49:31.000Z,84.52
2023-02-23T01:50:36.000Z,85.28
2023-02-23T01:51:35.000Z,84.77
2023-02-23T01:52:30.000Z,85.54
2023-02-23T01:53:36.000Z,84.99
2023-02-23T01:54:32.000Z,84.78
2023-02-23T01:55:30.000Z,85.94
2023-02-23T01:56:34.000Z,85.73
2023-02-23T01:57:30.000Z,85.89
2023-02-23T01:58:31.000Z,85.40
2023-02-23T01:59:42.000Z,85.85
2023-02-23T02:00:35.000Z,85.47
2023-02-23T02:01:30.000Z,86.01
2023-02-23T02:02:31.000Z,85.50
2023-02-23T02:03:34.000Z,85.75
2023-02-23T02:04:36.000Z,86.16
2023-02-23T02:05:30.000Z,86.12
2023-02-23T02:06:31.000Z,85.66
2023-02-23T02:07:32.000Z,86.00
2023-02-23T02:08:32.000Z,85.57
2023-02-23T02:09:36.000Z,85.55
2023-02-23T02:10:36.000Z,85.33
2023-02-23T02:11:35.000Z,85.53
2023-02-23T02:12:30.000Z,85.08
2023-02-23T02:13:31.000Z,84.87
2023-02-23T02:14:30.000Z,85.03
2023-02-23T02:15:36.000Z,84.97
2023-02-23T02:16:53.000Z,84.90
2023-02-23T02:17:56.000Z,85.31
2023-02-23T02:18:55.000Z,85.65
2023-02-23T02:19:40.000Z,85.18
2023-02-23T02:20:49.000Z,85.04
2023-02-23T02:21:44.000Z,85.32
2023-02-23T02:22:50.000Z,85.15
2023-02-23T02:23:46.000Z,84.99
2023-02-23T02:24:41.000Z,84.87
2023-02-23T02:25:48.000Z,84.91
2023-02-23T02:26:58.000Z,84.91
2023-02-23T02:27:40.000Z,85.47
2023-02-23T02:28:53.000Z,85.26
2023-02-23T02:29:46.000Z,85.38
2023-02-23T02:30:53.000Z,85.29
2023-02-23T02:31:40.000Z,85.66
2023-02-23T02:32:46.000Z,85.22
2023-02-23T02:33:45.000Z,85.17
2023-02-23T02:34:45.000Z,86.55
2023-02-23T02:35:48.000Z,86.55
2023-02-23T02:36:48.000Z,86.22
2023-02-23T02:37:42.000Z,85.74
2023-02-23T02:38:50.000Z,85.58
2023-02-23T02:39:52.000Z,86.99
2023-02-23T02:40:41.000Z,87.59
2023-02-23T02:41:46.000Z,86.18
2023-02-23T02:42:37.000Z,85.96
2023-02-23T02:43:39.000Z,86.60
2023-02-23T02:44:42.000Z,87.14
2023-02-23T02:45:49.000Z,87.05
2023-02-23T02:46:39.000Z,86.40
2023-02-23T02:47:41.000Z,85.97
2023-02-23T02:48:40.000Z,85.73
2023-02-23T02:49:49.000Z,85.85
2023-02-23T02:50:40.000Z,86.21
2023-02-23T02:51:40.000Z,85.90
2023-02-23T02:52:37.000Z,86.21
2023-02-23T02:53:50.000Z,86.28
2023-02-23T02:54:38.000Z,87.05
2023-02-23T02:55:37.000Z,87.08
2023-02-23T02:56:38.000Z,86.56
2023-02-23T02:57:31.000Z,87.58
2023-02-23T02:58:30.000Z,87.24
2023-02-23T02:59:41.000Z,86.68
2023-02-23T03:00:42.000Z,86.68
2023-02-23T03:01:35.000Z,86.88
2023-02-23T03:02:38.000Z,86.68
2023-02-23T03:03:41.000Z,86.75
2023-02-23T03:04:35.000Z,86.76
2023-02-23T03:05:43.000Z,87.64
2023-02-23T03:06:49.000Z,87.19
2023-02-23T03:07:56.000Z,86.89
2023-02-23T03:08:45.000Z,87.96
2023-02-23T03:09:42.000Z,87.22
2023-02-23T03:10:45.000Z,87.08
2023-02-23T03:11:40.000Z,87.38
2023-02-23T03:12:59.000Z,87.80
2023-02-23T03:13:52.000Z,87.35
2023-02-23T03:14:49.000Z,87.71
2023-02-23T03:15:51.000Z,88.08
2023-02-23T03:16:55.000Z,87.66
2023-02-23T03:17:45.000Z,87.50
2023-02-23T03:18:45.000Z,87.13
2023-02-23T03:19:46.000Z,87.52
2023-02-23T03:20:43.000Z,87.71
2023-02-23T03:21:48.000Z,87.48
2023-02-23T03:22:46.000Z,87.48
2023-02-23T03:23:55.000Z,87.19
2023-02-23T03:24:44.000Z,87.58
2023-02-23T03:25:45.000Z,87.95
2023-02-23T03:26:44.000Z,88.10
2023-02-23T03:27:51.000Z,87.96
2023-02-23T03:28:51.000Z,88.21
2023-02-23T03:29:45.000Z,88.24
2023-02-23T03:30:45.000Z,88.20
2023-02-23T03:31:45.000Z,88.38
2023-02-23T03:32:57.000Z,88.74
2023-02-23T03:33:45.000Z,88.29
2023-02-23T03:34:44.000Z,88.23
2023-02-23T03:35:45.000Z,88.38
2023-02-23T03:36:42.000Z,88.89
2023-02-23T03:37:43.000Z,88.91
2023-02-23T03:38:46.000Z,88.94
2023-02-23T03:39:44.000Z,88.93
2023-02-23T03:40:39.000Z,88.94
2023-02-23T03:41:38.000Z,88.71
2023-02-23T03:42:38.000Z,89.00
2023-02-23T03:43:42.000Z,89.10
2023-02-23T03:44:40.000Z,88.99
2023-02-23T03:45:36.000Z,89.01
2023-02-23T03:46:37.000Z,89.28
2023-02-23T03:47:38.000Z,89.29
2023-02-23T03:48:37.000Z,89.30
2023-02-23T03:49:38.000Z,89.34
2023-02-23T03:50:44.000Z,89.39
2023-02-23T03:51:40.000Z,89.26
2023-02-23T03:52:42.000Z,89.35
2023-02-23T03:53:58.000Z,89.50
2023-02-23T03:54:42.000Z,89.56
2023-02-23T03:55:39.000Z,89.43
2023-02-23T03:56:39.000Z,89.01
2023-02-23T03:57:37.000Z,89.31
2023-02-23T03:58:43.000Z,89.39
2023-02-23T03:59:41.000Z,89.65
2023-02-23T04:00:41.000Z,89.50
2023-02-23T04:01:36.000Z,89.47
2023-02-23T04:02:35.000Z,89.42
2023-02-23T04:03:40.000Z,89.44
2023-02-23T04:04:36.000Z,89.37
2023-02-23T04:05:39.000Z,89.44
2023-02-23T04:06:40.000Z,89.43
2023-02-23T04:07:38.000Z,89.24
2023-02-23T04:08:36.000Z,89.38
2023-02-23T04:09:35.000Z,89.39
2023-02-23T04:10:43.000Z,89.39
2023-02-23T04:11:46.000Z,89.71
2023-02-23T04:12:48.000Z,89.60
2023-02-23T04:13:32.000Z,89.41
2023-02-23T04:14:38.000Z,89.45
2023-02-23T04:15:33.000Z,89.30
2023-02-23T04:16:31.000Z,89.62
2023-02-23T04:17:44.000Z,89.64
2023-02-23T04:18:35.000Z,89.22
2023-02-23T04:19:29.000Z,89.32
2023-02-23T04:20:31.000Z,89.30
2023-02-23T04:21:29.000Z,89.55
2023-02-23T04:22:30.000Z,89.57
2023-02-23T04:23:30.000Z,89.50
2023-02-23T04:24:29.000Z,89.66
2023-02-23T04:25:29.000Z,89.84
2023-02-23T04:26:29.000Z,89.52
2023-02-23T04:27:30.000Z,89.52
2023-02-23T04:28:29.000Z,89.60
2023-02-23T04:29:29.000Z,89.62
2023-02-23T04:30:29.000Z,89.72
2023-02-23T04:31:29.000Z,89.50
2023-02-23T04:32:29.000Z,89.76
2023-02-23T04:33:30.000Z,89.75
2023-02-23T04:34:29.000Z,89.47
2023-02-23T04:35:29.000Z,89.79
2023-02-23T04:36:29.000Z,89.72
2023-02-23T04:37:29.000Z,89.82
2023-02-23T04:38:29.000Z,89.58
2023-02-23T04:39:29.000Z,89.55
2023-02-23T04:40:30.000Z,89.59
2023-02-23T04:41:30.000Z,89.39
2023-02-23T04:42:30.000Z,89.72
2023-02-23T04:43:30.000Z,89.75
2023-02-23T04:44:30.000Z,89.84
2023-02-23T04:45:30.000Z,89.77
2023-02-23T04:46:30.000Z,89.73
2023-02-23T04:47:30.000Z,89.53
2023-02-23T04:48:30.000Z,89.72
2023-02-23T04:49:30.000Z,89.72
2023-02-23T04:50:30.000Z,89.49
2023-02-23T04:51:32.000Z,89.80
2023-02-23T04:52:30.000Z,89.90
2023-02-23T04:53:30.000Z,89.41
2023-02-23T04:54:30.000Z,89.41
2023-02-23T04:55:31.000Z,89.53
2023-02-23T04:56:30.000Z,89.93
2023-02-23T04:57:30.000Z,89.67
2023-02-23T04:58:31.000Z,89.55
2023-02-23T04:59:30.000Z,89.30
2023-02-23T05:00:30.000Z,89.81
2023-02-23T05:01:31.000Z,89.87
2023-02-23T05:02:30.000Z,89.55
2023-02-23T05:03:30.000Z,89.32
2023-02-23T05:04:30.000Z,89.83
2023-02-23T05:05:30.000Z,89.97
2023-02-23T05:06:31.000Z,89.94
2023-02-23T05:07:30.000Z,89.66
2023-02-23T05:08:30.000Z,89.87
2023-02-23T05:09:30.000Z,89.71
2023-02-23T05:10:30.000Z,89.75
2023-02-23T05:11:30.000Z,89.57
2023-02-23T05:12:31.000Z,90.49
2023-02-23T05:13:30.000Z,89.72
2023-02-23T05:14:30.000Z,89.65
2023-02-23T05:15:30.000Z,89.97
2023-02-23T05:16:31.000Z,89.83
2023-02-23T05:17:30.000Z,89.85
2023-02-23T05:18:30.000Z,89.76
2023-02-23T05:19:30.000Z,90.03
2023-02-23T05:20:30.000Z,90.20
2023-02-23T05:21:30.000Z,90.26
2023-02-23T05:22:30.000Z,89.58
2023-02-23T05:23:30.000Z,89.75
2023-02-23T05:24:30.000Z,89.70
2023-02-23T05:25:30.000Z,89.51
2023-02-23T05:26:30.000Z,89.55
2023-02-23T05:27:31.000Z,90.28
2023-02-23T05:28:32.000Z,90.16
2023-02-23T05:29:30.000Z,89.58
2023-02-23T05:30:30.000Z,89.37
2023-02-23T05:31:30.000Z,89.42
2023-02-23T05:32:30.000Z,89.89
2023-02-23T05:33:31.000Z,89.69
2023-02-23T05:34:30.000Z,89.72
2023-02-23T05:35:30.000Z,89.51
2023-02-23T05:36:30.000Z,89.43
2023-02-23T05:37:30.000Z,89.58
2023-02-23T05:38:30.000Z,89.62
2023-02-23T05:39:30.000Z,89.80
2023-02-23T05:40:31.000Z,90.03
2023-02-23T05:41:30.000Z,90.13
2023-02-23T05:42:30.000Z,89.92
2023-02-23T05:43:30.000Z,89.94
2023-02-23T05:44:29.000Z,89.94
2023-02-23T05:45:30.000Z,90.18
2023-02-23T05:46:29.000Z,90.12
2023-02-23T05:47:30.000Z,90.05
2023-02-23T05:48:29.000Z,90.25
2023-02-23T05:49:29.000Z,90.03
2023-02-23T05:50:29.000Z,90.10
2023-02-23T05:51:32.000Z,90.11
2023-02-23T05:52:29.000Z,90.20
2023-02-23T05:53:30.000Z,90.13
2023-02-23T05:54:30.000Z,90.19
2023-02-23T05:55:31.000Z,90.13
2023-02-23T05:56:30.000Z,90.16
2023-02-23T05:57:30.000Z,90.32
2023-02-23T05:58:30.000Z,90.32
2023-02-23T05:59:30.000Z,90.10
2023-02-23T06:00:30.000Z,90.06
2023-02-23T06:01:30.000Z,90.01
2023-02-23T06:02:30.000Z,90.28
2023-02-23T06:03:30.000Z,89.88
2023-02-23T06:04:30.000Z,90.21
2023-02-23T06:05:29.000Z,90.01
2023-02-23T06:06:30.000Z,90.17
2023-02-23T06:07:30.000Z,90.29
2023-02-23T06:08:30.000Z,90.34
2023-02-23T06:09:29.000Z,90.36
2023-02-23T06:10:29.000Z,89.98
2023-02-23T06:11:30.000Z,89.65
2023-02-23T06:12:29.000Z,90.06
2023-02-23T06:13:30.000Z,89.80
2023-02-23T06:14:31.000Z,90.19
2023-02-23T06:15:30.000Z,90.13
2023-02-23T06:16:30.000Z,90.04
2023-02-23T06:17:31.000Z,90.04
2023-02-23T06:18:30.000Z,90.24
2023-02-23T06:19:30.000Z,90.30
2023-02-23T06:20:30.000Z,89.97
2023-02-23T06:21:30.000Z,90.17
2023-02-23T06:22:30.000Z,90.03
2023-02-23T06:23:32.000Z,90.19
2023-02-23T06:24:30.000Z,90.33
2023-02-23T06:25:30.000Z,90.32
2023-02-23T06:26:31.000Z,90.12
2023-02-23T06:27:30.000Z,90.37
2023-02-23T06:28:30.000Z,90.01
2023-02-23T06:29:30.000Z,90.33
2023-02-23T06:30:30.000Z,90.38
2023-02-23T06:31:30.000Z,90.09
2023-02-23T06:32:31.000Z,90.30
2023-02-23T06:33:30.000Z,89.99
2023-02-23T06:34:31.000Z,89.87
2023-02-23T06:35:32.000Z,90.20
2023-02-23T06:36:30.000Z,90.29
2023-02-23T06:37:31.000Z,90.32
2023-02-23T06:38:30.000Z,90.10
2023-02-23T06:39:30.000Z,90.24
2023-02-23T06:40:30.000Z,90.41
2023-02-23T06:41:31.000Z,90.20
2023-02-23T06:42:30.000Z,90.14
2023-02-23T06:43:30.000Z,90.44
2023-02-23T06:44:30.000Z,90.53
2023-02-23T06:45:31.000Z,90.56
2023-02-23T06:46:31.000Z,90.92
2023-02-23T06:47:30.000Z,90.45
2023-02-23T06:48:30.000Z,90.40
2023-02-23T06:49:30.000Z,90.36
2023-02-23T06:50:30.000Z,90.78
2023-02-23T06:51:29.000Z,90.56
2023-02-23T06:52:29.000Z,90.33
2023-02-23T06:53:30.000Z,90.70
2023-02-23T06:54:30.000Z,90.59
2023-02-23T06:55:30.000Z,90.65
2023-02-23T06:56:30.000Z,90.66
2023-02-23T06:57:29.000Z,90.54
2023-02-23T06:58:30.000Z,90.35
2023-02-23T06:59:30.000Z,90.61
2023-02-23T07:00:30.000Z,90.51
2023-02-23T07:01:30.000Z,90.51
2023-02-23T07:02:30.000Z,90.83
2023-02-23T07:03:30.000Z,90.64
2023-02-23T07:04:30.000Z,90.55
2023-02-23T07:05:29.000Z,90.61
2023-02-23T07:06:30.000Z,90.82
2023-02-23T07:07:31.000Z,90.42
2023-02-23T07:08:31.000Z,90.99
2023-02-23T07:09:37.000Z,90.48
2023-02-23T07:10:30.000Z,90.10
2023-02-23T07:11:30.000Z,90.69
2023-02-23T07:12:30.000Z,90.25
2023-02-23T07:13:29.000Z,90.18
2023-02-23T07:14:31.000Z,90.07
2023-02-23T07:15:30.000Z,90.40
2023-02-23T07:16:30.000Z,90.41
2023-02-23T07:17:30.000Z,90.41
2023-02-23T07:18:30.000Z,90.63
2023-02-23T07:19:31.000Z,90.46
2023-02-23T07:20:30.000Z,90.57
2023-02-23T07:21:33.000Z,90.29
2023-02-23T07:22:30.000Z,90.50
2023-02-23T07:23:30.000Z,90.67
2023-02-23T07:24:30.000Z,90.52
2023-02-23T07:25:30.000Z,90.43
2023-02-23T07:26:31.000Z,90.20
2023-02-23T07:27:30.000Z,90.36
2023-02-23T07:28:30.000Z,90.46
2023-02-23T07:29:30.000Z,90.35
2023-02-23T07:30:30.000Z,90.40
2023-02-23T07:31:30.000Z,90.58
2023-02-23T07:32:30.000Z,90.17
2023-02-23T07:33:31.000Z,90.51
2023-02-23T07:34:30.000Z,90.13
2023-02-23T07:35:30.000Z,90.09
2023-02-23T07:36:30.000Z,90.13
2023-02-23T07:37:30.000Z,90.84
2023-02-23T07:38:30.000Z,90.47
2023-02-23T07:39:30.000Z,90.70
2023-02-23T07:40:30.000Z,90.80
2023-02-23T07:41:30.000Z,90.50
2023-02-23T07:42:30.000Z,90.65
2023-02-23T07:43:30.000Z,90.89
2023-02-23T07:44:30.000Z,90.76
2023-02-23T07:45:30.000Z,90.34
2023-02-23T07:46:30.000Z,90.38
2023-02-23T07:47:29.000Z,90.48
2023-02-23T07:48:30.000Z,90.23
2023-02-23T07:49:31.000Z,90.44
2023-02-23T07:50:30.000Z,90.41
2023-02-23T07:51:29.000Z,90.35
2023-02-23T07:52:30.000Z,90.27
2023-02-23T07:53:30.000Z,90.03
2023-02-23T07:54:29.000Z,90.19
2023-02-23T07:55:30.000Z,90.35
2023-02-23T07:56:30.000Z,90.27
2023-02-23T07:57:30.000Z,90.25
2023-02-23T07:58:30.000Z,90.27
2023-02-23T07:59:30.000Z,89.93
2023-02-23T08:00:31.000Z,89.95
2023-02-23T08:01:29.000Z,90.18
2023-02-23T08:02:31.000Z,90.02
2023-02-23T08:03:30.000Z,90.06
2023-02-23T08:04:29.000Z,90.60
2023-02-23T08:05:30.000Z,90.17
2023-02-23T08:06:30.000Z,90.09
2023-02-23T08:07:32.000Z,89.92
2023-02-23T08:08:30.000Z,90.11
2023-02-23T08:09:31.000Z,89.88
2023-02-23T08:10:30.000Z,90.01
2023-02-23T08:11:29.000Z,89.79
2023-02-23T08:12:31.000Z,89.70
2023-02-23T08:13:30.000Z,89.95
2023-02-23T08:14:29.000Z,90.01
2023-02-23T08:15:30.000Z,89.77
2023-02-23T08:16:31.000Z,89.69
2023-02-23T08:17:29.000Z,90.54
2023-02-23T08:18:29.000Z,90.13
2023-02-23T08:19:29.000Z,90.65
2023-02-23T08:20:29.000Z,90.04
2023-02-23T08:21:29.000Z,90.01
2023-02-23T08:22:29.000Z,89.97
2023-02-23T08:23:31.000Z,90.26
2023-02-23T08:24:29.000Z,89.91
2023-02-23T08:25:29.000Z,89.93
2023-02-23T08:26:29.000Z,90.26
2023-02-23T08:27:34.000Z,90.01
2023-02-23T08:28:29.000Z,89.96
2023-02-23T08:29:29.000Z,89.70
2023-02-23T08:30:30.000Z,89.76
2023-02-23T08:31:29.000Z,89.68
2023-02-23T08:32:32.000Z,89.63
2023-02-23T08:33:30.000Z,89.97
2023-02-23T08:34:30.000Z,89.81
2023-02-23T08:35:29.000Z,89.86
2023-02-23T08:36:29.000Z,89.93
2023-02-23T08:37:29.000Z,90.07
2023-02-23T08:38:29.000Z,89.87
2023-02-23T08:39:29.000Z,90.18
2023-02-23T08:40:29.000Z,89.90
2023-02-23T08:41:30.000Z,89.74
2023-02-23T08:42:29.000Z,89.39
2023-02-23T08:43:30.000Z,89.68
2023-02-23T08:44:29.000Z,89.72
2023-02-23T08:45:29.000Z,89.52
2023-02-23T08:46:29.000Z,89.43
2023-02-23T08:47:31.000Z,89.16
2023-02-23T08:48:29.000Z,89.22
2023-02-23T08:49:31.000Z,88.75
2023-02-23T08:50:29.000Z,88.69
2023-02-23T08:51:30.000Z,88.67
2023-02-23T08:52:30.000Z,88.71
2023-02-23T08:53:29.000Z,88.63
2023-02-23T08:54:29.000Z,88.59
2023-02-23T08:55:29.000Z,88.38
2023-02-23T08:56:30.000Z,88.54
2023-02-23T08:57:36.000Z,88.43
2023-02-23T08:58:31.000Z,88.29
2023-02-23T08:59:30.000Z,88.30
2023-02-23T09:00:29.000Z,88.33
2023-02-23T09:01:30.000Z,88.02
2023-02-23T09:02:29.000Z,87.62
2023-02-23T09:03:30.000Z,87.75
2023-02-23T09:04:30.000Z,87.40
2023-02-23T09:05:31.000Z,87.25
2023-02-23T09:06:31.000Z,85.88
2023-02-23T09:07:29.000Z,85.52
2023-02-23T09:08:29.000Z,85.90
2023-02-23T09:09:29.000Z,85.84
2023-02-23T09:10:30.000Z,85.76
2023-02-23T09:11:30.000Z,85.43
2023-02-23T09:12:29.000Z,85.79
2023-02-23T09:13:30.000Z,85.87
2023-02-23T09:14:30.000Z,85.51
2023-02-23T09:15:29.000Z,84.92
2023-02-23T09:16:30.000Z,85.17
2023-02-23T09:17:30.000Z,84.71
2023-02-23T09:18:31.000Z,84.73
2023-02-23T09:19:30.000Z,84.52
2023-02-23T09:20:30.000Z,84.20
2023-02-23T09:21:33.000Z,84.12
2023-02-23T09:22:30.000Z,83.46
2023-02-23T09:23:30.000Z,83.69
2023-02-23T09:24:31.000Z,84.06
2023-02-23T09:25:31.000Z,84.21
2023-02-23T09:26:31.000Z,83.57
2023-02-23T09:27:30.000Z,83.52
2023-02-23T09:28:30.000Z,83.65
2023-02-23T09:29:30.000Z,83.89
2023-02-23T09:30:30.000Z,83.47
2023-02-23T09:31:30.000Z,82.61
2023-02-23T09:32:30.000Z,83.13
2023-02-23T09:33:30.000Z,83.15
2023-02-23T09:34:30.000Z,82.59
2023-02-23T09:35:31.000Z,82.76
2023-02-23T09:36:30.000Z,81.77
2023-02-23T09:37:30.000Z,82.30
2023-02-23T09:38:30.000Z,82.33
2023-02-23T09:39:30.000Z,82.42
2023-02-23T09:40:45.000Z,82.82
2023-02-23T09:42:03.000Z,82.52
2023-02-23T09:42:40.000Z,82.31
2023-02-23T09:43:47.000Z,82.56
2023-02-23T09:44:40.000Z,81.89
2023-02-23T09:45:40.000Z,81.54
2023-02-23T09:46:48.000Z,81.33
2023-02-23T09:47:43.000Z,80.86
2023-02-23T09:48:32.000Z,80.97
2023-02-23T09:49:35.000Z,80.74
2023-02-23T09:50:32.000Z,80.83
2023-02-23T09:51:38.000Z,81.02
2023-02-23T09:52:40.000Z,80.63
2023-02-23T09:53:37.000Z,81.41
2023-02-23T09:54:33.000Z,81.30
2023-02-23T09:55:30.000Z,79.66
2023-02-23T09:56:36.000Z,80.14
2023-02-23T09:57:38.000Z,80.29
2023-02-23T09:58:32.000Z,79.79
2023-02-23T09:59:30.000Z,80.02
2023-02-23T10:00:37.000Z,79.81
2023-02-23T10:01:50.000Z,80.00
2023-02-23T10:02:42.000Z,80.15
2023-02-23T10:03:33.000Z,79.85
2023-02-23T10:04:43.000Z,80.04
2023-02-23T10:05:39.000Z,80.14
2023-02-23T10:06:29.000Z,80.09
2023-02-23T10:07:44.000Z,79.68
2023-02-23T10:08:39.000Z,79.68
2023-02-23T10:09:45.000Z,79.94
2023-02-23T10:10:41.000Z,79.97
2023-02-23T10:11:39.000Z,78.81
2023-02-23T10:12:40.000Z,78.91
2023-02-23T10:13:40.000Z,78.66
2023-02-23T10:14:53.000Z,79.09
2023-02-23T10:15:42.000Z,79.26
2023-02-23T10:16:42.000Z,79.07
2023-02-23T10:17:41.000Z,78.64
2023-02-23T10:18:57.000Z,78.86
2023-02-23T10:19:49.000Z,78.50
2023-02-23T10:20:40.000Z,78.31
2023-02-23T10:21:37.000Z,78.60
2023-02-23T10:22:34.000Z,78.51
2023-02-23T10:23:41.000Z,78.51
2023-02-23T10:24:39.000Z,78.48
2023-02-23T10:25:35.000Z,78.35
2023-02-23T10:26:39.000Z,77.90
2023-02-23T10:27:38.000Z,77.71
2023-02-23T10:28:34.000Z,77.32
2023-02-23T10:29:38.000Z,77.61
2023-02-23T10:30:32.000Z,77.88
2023-02-23T10:31:42.000Z,78.29
2023-02-23T10:32:46.000Z,78.30
2023-02-23T10:33:37.000Z,78.16
2023-02-23T10:34:30.000Z,77.19
2023-02-23T10:35:32.000Z,77.02
2023-02-23T10:36:35.000Z,77.34
2023-02-23T10:37:30.000Z,76.75
2023-02-23T10:38:30.000Z,76.84
2023-02-23T10:39:32.000Z,76.61
2023-02-23T10:40:32.000Z,76.83
2023-02-23T10:41:30.000Z,77.21
2023-02-23T10:42:31.000Z,77.34
2023-02-23T10:43:30.000Z,77.67
2023-02-23T10:44:30.000Z,77.75
2023-02-23T10:45:38.000Z,77.84
2023-02-23T10:46:37.000Z,77.60
2023-02-23T10:47:33.000Z,77.51
2023-02-23T10:48:39.000Z,77.32
2023-02-23T10:49:40.000Z,76.92
2023-02-23T10:50:31.000Z,76.96
2023-02-23T10:51:34.000Z,76.65
2023-02-23T10:52:39.000Z,76.00
2023-02-23T10:53:33.000Z,75.71
2023-02-23T10:54:34.000Z,75.16
2023-02-23T10:55:30.000Z,75.57
2023-02-23T10:56:43.000Z,73.96
2023-02-23T10:57:32.000Z,74.13
2023-02-23T10:58:37.000Z,73.24
2023-02-23T10:59:29.000Z,73.42
2023-02-23T11:00:33.000Z,73.30
2023-02-23T11:01:35.000Z,73.21
2023-02-23T11:02:31.000Z,71.56
2023-02-23T11:03:41.000Z,71.56
2023-02-23T11:04:32.000Z,71.90
2023-02-23T11:05:45.000Z,72.08
2023-02-23T11:06:34.000Z,71.55
2023-02-23T11:07:31.000Z,71.78
2023-02-23T11:08:32.000Z,71.89
2023-02-23T11:09:31.000Z,71.00
2023-02-23T11:10:30.000Z,70.50
2023-02-23T11:11:29.000Z,70.71
2023-02-23T11:12:38.000Z,71.01
2023-02-23T11:13:39.000Z,69.58
2023-02-23T11:14:30.000Z,69.77
2023-02-23T11:15:32.000Z,70.23
2023-02-23T11:16:37.000Z,70.12
2023-02-23T11:17:35.000Z,69.93
2023-02-23T11:18:30.000Z,71.10
2023-02-23T11:19:34.000Z,71.42
2023-02-23T11:20:40.000Z,70.63
2023-02-23T11:21:36.000Z,70.29
2023-02-23T11:22:33.000Z,70.61
2023-02-23T11:23:33.000Z,70.58
2023-02-23T11:24:35.000Z,69.22
2023-02-23T11:25:31.000Z,69.90
2023-02-23T11:26:37.000Z,70.62
2023-02-23T11:27:29.000Z,69.53
2023-02-23T11:28:35.000Z,69.92
2023-02-23T11:29:38.000Z,70.36
2023-02-23T11:30:35.000Z,70.19
2023-02-23T11:31:33.000Z,69.32
2023-02-23T11:32:32.000Z,68.23
2023-02-23T11:33:32.000Z,68.51
2023-02-23T11:34:35.000Z,68.93
2023-02-23T11:35:30.000Z,68.44
2023-02-23T11:36:33.000Z,68.17
2023-02-23T11:37:29.000Z,68.50
2023-02-23T11:38:32.000Z,67.21
2023-02-23T11:39:30.000Z,65.75
2023-02-23T11:40:31.000Z,66.74
2023-02-23T11:41:32.000Z,66.08
2023-02-23T11:42:32.000Z,67.00
2023-02-23T11:43:29.000Z,67.27
2023-02-23T11:44:29.000Z,67.42
2023-02-23T11:45:42.000Z,66.68
2023-02-23T11:46:33.000Z,67.24
2023-02-23T11:47:32.000Z,67.24
2023-02-23T11:48:33.000Z,67.91
2023-02-23T11:49:31.000Z,67.06
2023-02-23T11:50:33.000Z,67.74
2023-02-23T11:51:32.000Z,67.06
2023-02-23T11:52:30.000Z,66.99
2023-02-23T11:53:38.000Z,66.89
2023-02-23T11:54:32.000Z,67.21
2023-02-23T11:55:31.000Z,65.97
2023-02-23T11:56:32.000Z,66.59
2023-02-23T11:57:33.000Z,66.79
2023-02-23T11:58:37.000Z,66.63
2023-02-23T11:59:35.000Z,66.57
2023-02-23T12:00:29.000Z,66.01
2023-02-23T12:01:40.000Z,65.83
2023-02-23T12:02:30.000Z,65.76
2023-02-23T12:03:32.000Z,66.82
2023-02-23T12:04:37.000Z,66.86
2023-02-23T12:05:30.000Z,66.23
2023-02-23T12:06:35.000Z,65.86
2023-02-23T12:07:39.000Z,65.89
2023-02-23T12:08:42.000Z,66.44
2023-02-23T12:09:33.000Z,65.13
2023-02-23T12:10:39.000Z,65.17
2023-02-23T12:11:36.000Z,65.07
2023-02-23T12:12:37.000Z,64.72
2023-02-23T12:13:38.000Z,64.49
2023-02-23T12:14:36.000Z,64.42
2023-02-23T12:15:38.000Z,64.63
2023-02-23T12:16:38.000Z,65.13
2023-02-23T12:17:47.000Z,65.28
2023-02-23T12:18:58.000Z,65.24
2023-02-23T12:19:39.000Z,65.76
2023-02-23T12:20:36.000Z,65.67
2023-02-23T12:21:39.000Z,65.85
2023-02-23T12:22:41.000Z,65.62
2023-02-23T12:23:32.000Z,65.89
2023-02-23T12:24:54.000Z,66.52
2023-02-23T12:25:38.000Z,67.39
2023-02-23T12:26:34.000Z,68.21
2023-02-23T12:27:38.000Z,68.23
2023-02-23T12:28:35.000Z,68.55
2023-02-23T12:29:51.000Z,68.18
2023-02-23T12:30:40.000Z,68.72
2023-02-23T12:31:40.000Z,68.01
2023-02-23T12:32:44.000Z,68.55
2023-02-23T12:33:40.000Z,68.57
2023-02-23T12:34:49.000Z,68.71
2023-02-23T12:35:52.000Z,68.45
2023-02-23T12:36:39.000Z,68.06
2023-02-23T12:37:40.000Z,67.81
2023-02-23T12:38:41.000Z,68.16
2023-02-23T12:39:36.000Z,68.41
2023-02-23T12:40:33.000Z,68.02
2023-02-23T12:41:36.000Z,67.81
2023-02-23T12:42:39.000Z,67.69
2023-02-23T12:43:39.000Z,67.29
2023-02-23T12:44:40.000Z,67.32
2023-02-23T12:45:50.000Z,67.14
2023-02-23T12:46:36.000Z,67.61
2023-02-23T12:47:40.000Z,67.48
2023-02-23T12:48:40.000Z,67.64
2023-02-23T12:49:39.000Z,67.18
2023-02-23T12:50:32.000Z,67.66
2023-02-23T12:51:37.000Z,66.89
2023-02-23T12:52:34.000Z,67.27